sensor_id;sensor_type;location;lat;lon;timestamp;pressure;altitude;pressure_sealevel;temperature;humidity
40245;BME280;25963;42.694;23.600;2023-06-14T00:01:16;94884.03;;;16.90;100.00
40245;BME280;25963;42.694;23.600;2023-06-14T00:03:42;94898.72;;;16.98;100.00
40245;BME280;25963;42.694;23.600;2023-06-14T00:06:07;94875.00;;;16.91;100.00
40245;BME280;25963;42.694;23.600;2023-06-14T00:08:33;94891.25;;;17.05;100.00
40245;BME280;25963;42.694;23.600;2023-06-14T00:10:58;94884.06;;;16.95;100.00
40245;BME280;25963;42.694;23.600;2023-06-14T00:13:25;94894.97;;;16.99;100.00
40245;BME280;25963;42.694;23.600;2023-06-14T00:15:50;94889.66;;;16.99;100.00
40245;BME280;25963;42.694;23.600;2023-06-14T00:18:20;94865.66;;;16.88;100.00
40245;BME280;25963;42.694;23.600;2023-06-14T00:20:49;94881.41;;;17.00;100.00
40245;BME280;25963;42.694;23.600;2023-06-14T00:23:15;94883.28;;;17.00;100.00
40245;BME280;25963;42.694;23.600;2023-06-14T00:25:40;94879.50;;;16.85;100.00
40245;BME280;25963;42.694;23.600;2023-06-14T00:28:06;94888.59;;;16.95;100.00
40245;BME280;25963;42.694;23.600;2023-06-14T00:30:31;94878.69;;;16.90;100.00
40245;BME280;25963;42.694;23.600;2023-06-14T00:32:56;94888.59;;;16.95;100.00
40245;BME280;25963;42.694;23.600;2023-06-14T00:35:23;94882.72;;;16.87;100.00
40245;BME280;25963;42.694;23.600;2023-06-14T00:37:48;94889.09;;;16.86;100.00
40245;BME280;25963;42.694;23.600;2023-06-14T00:40:14;94889.09;;;16.86;100.00
40245;BME280;25963;42.694;23.600;2023-06-14T00:42:40;94878.97;;;16.78;100.00
40245;BME280;25963;42.694;23.600;2023-06-14T00:45:05;94885.66;;;16.91;100.00
40245;BME280;25963;42.694;23.600;2023-06-14T00:47:31;94872.59;;;16.89;100.00
40245;BME280;25963;42.694;23.600;2023-06-14T00:49:57;94873.09;;;16.86;100.00
40245;BME280;25963;42.694;23.600;2023-06-14T00:52:24;94860.28;;;16.73;100.00
40245;BME280;25963;42.694;23.600;2023-06-14T00:54:49;94849.34;;;16.70;100.00
40245;BME280;25963;42.694;23.600;2023-06-14T00:57:15;94872.84;;;16.83;100.00
40245;BME280;25963;42.694;23.600;2023-06-14T00:59:46;94864.03;;;16.77;100.00
40245;BME280;25963;42.694;23.600;2023-06-14T01:02:12;94856.03;;;16.77;100.00
40245;BME280;25963;42.694;23.600;2023-06-14T01:04:39;94867.25;;;16.84;100.00
40245;BME280;25963;42.694;23.600;2023-06-14T01:07:15;94877.91;;;16.89;100.00
40245;BME280;25963;42.694;23.600;2023-06-14T01:12:47;94868.84;;;16.85;100.00
40245;BME280;25963;42.694;23.600;2023-06-14T01:15:17;94867.50;;;16.83;100.00
40245;BME280;25963;42.694;23.600;2023-06-14T01:17:44;94869.09;;;16.84;100.00
40245;BME280;25963;42.694;23.600;2023-06-14T01:20:11;94844.53;;;16.61;100.00
40245;BME280;25963;42.694;23.600;2023-06-14T01:22:50;94863.44;;;16.55;100.00
40245;BME280;25963;42.694;23.600;2023-06-14T01:25:15;94841.06;;;16.56;100.00
40245;BME280;25963;42.694;23.600;2023-06-14T01:27:42;94864.50;;;16.64;100.00
40245;BME280;25963;42.694;23.600;2023-06-14T01:30:08;94857.03;;;16.66;100.00
40245;BME280;25963;42.694;23.600;2023-06-14T01:32:35;94850.41;;;16.69;100.00
40245;BME280;25963;42.694;23.600;2023-06-14T01:35:01;94860.81;;;16.75;100.00
40245;BME280;25963;42.694;23.600;2023-06-14T01:37:28;94864.00;;;16.67;100.00
40245;BME280;25963;42.694;23.600;2023-06-14T01:39:54;94856.50;;;16.59;100.00
40245;BME280;25963;42.694;23.600;2023-06-14T01:42:20;94857.88;;;16.66;100.00
40245;BME280;25963;42.694;23.600;2023-06-14T01:44:47;94857.13;;;16.76;100.00
40245;BME280;25963;42.694;23.600;2023-06-14T01:47:13;94844.56;;;16.66;100.00
40245;BME280;25963;42.694;23.600;2023-06-14T01:49:39;94872.28;;;16.81;100.00
40245;BME280;25963;42.694;23.600;2023-06-14T01:52:05;94867.25;;;16.89;100.00
40245;BME280;25963;42.694;23.600;2023-06-14T01:54:31;94856.84;;;16.83;100.00
40245;BME280;25963;42.694;23.600;2023-06-14T01:56:57;94857.94;;;16.92;100.00
40245;BME280;25963;42.694;23.600;2023-06-14T01:59:22;94868.88;;;16.91;100.00
40245;BME280;25963;42.694;23.600;2023-06-14T02:01:47;94859.25;;;16.89;100.00
40245;BME280;25963;42.694;23.600;2023-06-14T02:04:13;94855.00;;;16.88;100.00
40245;BME280;25963;42.694;23.600;2023-06-14T02:06:38;94853.13;;;16.89;100.00
40245;BME280;25963;42.694;23.600;2023-06-14T02:09:04;94861.13;;;16.89;100.00
40245;BME280;25963;42.694;23.600;2023-06-14T02:11:29;94866.47;;;16.89;100.00
40245;BME280;25963;42.694;23.600;2023-06-14T02:13:55;94870.19;;;16.88;100.00
40245;BME280;25963;42.694;23.600;2023-06-14T02:16:21;94882.19;;;16.91;100.00
40245;BME280;25963;42.694;23.600;2023-06-14T02:18:47;94876.56;;;16.87;100.00
40245;BME280;25963;42.694;23.600;2023-06-14T02:21:13;94893.09;;;16.89;100.00
40245;BME280;25963;42.694;23.600;2023-06-14T02:23:39;94881.66;;;16.94;100.00
40245;BME280;25963;42.694;23.600;2023-06-14T02:26:05;94883.81;;;16.97;100.00
40245;BME280;25963;42.694;23.600;2023-06-14T02:28:30;94883.81;;;16.97;100.00
40245;BME280;25963;42.694;23.600;2023-06-14T02:30:56;94889.13;;;16.97;100.00
40245;BME280;25963;42.694;23.600;2023-06-14T02:33:21;94872.59;;;16.89;100.00
40245;BME280;25963;42.694;23.600;2023-06-14T02:35:47;94890.19;;;17.01;100.00
40245;BME280;25963;42.694;23.600;2023-06-14T02:38:12;94887.50;;;16.96;100.00
40245;BME280;25963;42.694;23.600;2023-06-14T02:40:38;94888.03;;;16.82;100.00
40245;BME280;25963;42.694;23.600;2023-06-14T02:43:03;94890.97;;;16.91;100.00
40245;BME280;25963;42.694;23.600;2023-06-14T02:45:29;94893.06;;;16.84;100.00
40245;BME280;25963;42.694;23.600;2023-06-14T02:47:54;94889.63;;;16.83;100.00
40245;BME280;25963;42.694;23.600;2023-06-14T02:50:20;94873.59;;;16.73;100.00
40245;BME280;25963;42.694;23.600;2023-06-14T02:52:46;94883.22;;;16.79;100.00
40245;BME280;25963;42.694;23.600;2023-06-14T02:55:12;94896.03;;;16.93;100.00
40245;BME280;25963;42.694;23.600;2023-06-14T02:57:38;94878.97;;;16.83;100.00
40245;BME280;25963;42.694;23.600;2023-06-14T03:00:04;94891.78;;;16.92;100.00
40245;BME280;25963;42.694;23.600;2023-06-14T03:02:30;94889.09;;;16.86;100.00
40245;BME280;25963;42.694;23.600;2023-06-14T03:04:55;94897.38;;;17.00;100.00
40245;BME280;25963;42.694;23.600;2023-06-14T03:07:21;94890.72;;;16.98;100.00
40245;BME280;25963;42.694;23.600;2023-06-14T03:09:48;94899.25;;;17.00;100.00
40245;BME280;25963;42.694;23.600;2023-06-14T03:12:14;94894.69;;;16.85;100.00
40245;BME280;25963;42.694;23.600;2023-06-14T03:14:40;94883.78;;;16.81;100.00
40245;BME280;25963;42.694;23.600;2023-06-14T03:17:07;94892.31;;;16.88;100.00
40245;BME280;25963;42.694;23.600;2023-06-14T03:19:33;94904.59;;;17.00;100.00
40245;BME280;25963;42.694;23.600;2023-06-14T03:21:59;94908.59;;;17.02;100.00
40245;BME280;25963;42.694;23.600;2023-06-14T03:24:24;94891.53;;;16.93;100.00
40245;BME280;25963;42.694;23.600;2023-06-14T03:26:53;94888.31;;;17.01;100.00
40245;BME280;25963;42.694;23.600;2023-06-14T03:29:18;94897.63;;;16.99;100.00
40245;BME280;25963;42.694;23.600;2023-06-14T03:32:01;94906.72;;;16.98;100.00
40245;BME280;25963;42.694;23.600;2023-06-14T03:34:27;94907.78;;;17.07;100.00
40245;BME280;25963;42.694;23.600;2023-06-14T03:36:52;94897.06;;;16.76;100.00
40245;BME280;25963;42.694;23.600;2023-06-14T03:39:18;94893.34;;;16.82;100.00
40245;BME280;25963;42.694;23.600;2023-06-14T03:41:44;94913.59;;;16.78;100.00
40245;BME280;25963;42.694;23.600;2023-06-14T03:44:09;94906.69;;;16.87;100.00
40245;BME280;25963;42.694;23.600;2023-06-14T03:46:35;94905.88;;;16.87;100.00
40245;BME280;25963;42.694;23.600;2023-06-14T03:49:00;94910.69;;;16.90;100.00
40245;BME280;25963;42.694;23.600;2023-06-14T03:51:28;94911.53;;;17.06;100.00
40245;BME280;25963;42.694;23.600;2023-06-14T03:53:53;94911.25;;;17.07;100.00
40245;BME280;25963;42.694;23.600;2023-06-14T03:56:19;94915.53;;;17.19;100.00
40245;BME280;25963;42.694;23.600;2023-06-14T03:58:45;94895.03;;;17.14;100.00
40245;BME280;25963;42.694;23.600;2023-06-14T04:01:10;94905.44;;;17.21;100.00
40245;BME280;25963;42.694;23.600;2023-06-14T04:03:37;94915.00;;;17.22;100.00
40245;BME280;25963;42.694;23.600;2023-06-14T04:06:04;94902.72;;;17.10;100.00
40245;BME280;25963;42.694;23.600;2023-06-14T04:08:30;94915.56;;;17.24;100.00
40245;BME280;25963;42.694;23.600;2023-06-14T04:10:56;94897.69;;;17.09;100.00
40245;BME280;25963;42.694;23.600;2023-06-14T04:13:21;94917.41;;;17.18;100.00
40245;BME280;25963;42.694;23.600;2023-06-14T04:15:47;94923.81;;;17.22;100.00
40245;BME280;25963;42.694;23.600;2023-06-14T04:18:12;94930.47;;;17.20;100.00
40245;BME280;25963;42.694;23.600;2023-06-14T04:20:38;94921.94;;;17.18;100.00
40245;BME280;25963;42.694;23.600;2023-06-14T04:23:14;94924.38;;;17.29;100.00
40245;BME280;25963;42.694;23.600;2023-06-14T04:25:40;94933.41;;;17.33;100.00
40245;BME280;25963;42.694;23.600;2023-06-14T04:30:45;94932.34;;;17.29;100.00
40245;BME280;25963;42.694;23.600;2023-06-14T04:33:12;94925.41;;;17.28;100.00
40245;BME280;25963;42.694;23.600;2023-06-14T04:35:38;94936.88;;;17.24;100.00
40245;BME280;25963;42.694;23.600;2023-06-14T04:38:05;94940.31;;;17.09;100.00
40245;BME280;25963;42.694;23.600;2023-06-14T04:40:34;94933.38;;;17.08;100.00
40245;BME280;25963;42.694;23.600;2023-06-14T04:43:01;94950.72;;;17.16;100.00
40245;BME280;25963;42.694;23.600;2023-06-14T04:45:30;94947.81;;;17.17;100.00
40245;BME280;25963;42.694;23.600;2023-06-14T04:47:58;94943.78;;;17.15;100.00
40245;BME280;25963;42.694;23.600;2023-06-14T04:50:24;94952.06;;;17.23;100.00
40245;BME280;25963;42.694;23.600;2023-06-14T04:52:50;94937.13;;;17.22;100.00
40245;BME280;25963;42.694;23.600;2023-06-14T04:55:16;94932.84;;;17.11;100.00
40245;BME280;25963;42.694;23.600;2023-06-14T04:57:42;94935.00;;;17.19;100.00
40245;BME280;25963;42.694;23.600;2023-06-14T05:00:08;94947.56;;;17.39;100.00
40245;BME280;25963;42.694;23.600;2023-06-14T05:02:36;94945.16;;;17.43;100.00
40245;BME280;25963;42.694;23.600;2023-06-14T05:07:38;94937.97;;;17.48;100.00
40245;BME280;25963;42.694;23.600;2023-06-14T05:10:04;94932.09;;;17.67;100.00
40245;BME280;25963;42.694;23.600;2023-06-14T05:12:30;94937.44;;;17.72;100.00
40245;BME280;25963;42.694;23.600;2023-06-14T05:14:55;94941.44;;;18.10;100.00
40245;BME280;25963;42.694;23.600;2023-06-14T05:17:23;94941.13;;;18.32;100.00
40245;BME280;25963;42.694;23.600;2023-06-14T05:19:49;94949.28;;;18.82;100.00
40245;BME280;25963;42.694;23.600;2023-06-14T05:22:14;94946.53;;;18.97;100.00
40245;BME280;25963;42.694;23.600;2023-06-14T05:24:40;94964.50;;;19.31;100.00
40245;BME280;25963;42.694;23.600;2023-06-14T05:27:07;94971.53;;;19.22;100.00
40245;BME280;25963;42.694;23.600;2023-06-14T05:29:32;94972.31;;;19.22;100.00
40245;BME280;25963;42.694;23.600;2023-06-14T05:31:58;94972.13;;;19.08;100.00
40245;BME280;25963;42.694;23.600;2023-06-14T05:34:23;94970.84;;;18.90;100.00
40245;BME280;25963;42.694;23.600;2023-06-14T05:36:48;94966.56;;;19.00;100.00
40245;BME280;25963;42.694;23.600;2023-06-14T05:39:14;94965.97;;;19.08;100.00
40245;BME280;25963;42.694;23.600;2023-06-14T05:41:39;94968.06;;;19.21;100.00
40245;BME280;25963;42.694;23.600;2023-06-14T05:44:05;94966.63;;;19.39;100.00
40245;BME280;25963;42.694;23.600;2023-06-14T05:46:30;94971.66;;;19.46;100.00
40245;BME280;25963;42.694;23.600;2023-06-14T05:48:56;94958.28;;;19.46;100.00
40245;BME280;25963;42.694;23.600;2023-06-14T05:51:22;94980.13;;;19.58;100.00
40245;BME280;25963;42.694;23.600;2023-06-14T05:53:50;94984.00;;;19.42;100.00
40245;BME280;25963;42.694;23.600;2023-06-14T05:56:16;94964.91;;;19.09;100.00
40245;BME280;25963;42.694;23.600;2023-06-14T05:58:43;94973.72;;;19.14;100.00
40245;BME280;25963;42.694;23.600;2023-06-14T06:01:08;94962.34;;;18.83;100.00
40245;BME280;25963;42.694;23.600;2023-06-14T06:03:34;94986.31;;;19.09;100.00
40245;BME280;25963;42.694;23.600;2023-06-14T06:05:59;94983.81;;;19.23;100.00
40245;BME280;25963;42.694;23.600;2023-06-14T06:08:26;94981.88;;;19.38;100.00
40245;BME280;25963;42.694;23.600;2023-06-14T06:10:55;94987.81;;;19.75;100.00
40245;BME280;25963;42.694;23.600;2023-06-14T06:13:21;95005.09;;;19.88;100.00
40245;BME280;25963;42.694;23.600;2023-06-14T06:15:47;95007.25;;;20.20;100.00
40245;BME280;25963;42.694;23.600;2023-06-14T06:18:12;95000.09;;;20.39;100.00
40245;BME280;25963;42.694;23.600;2023-06-14T06:20:38;94994.81;;;20.34;100.00
40245;BME280;25963;42.694;23.600;2023-06-14T06:23:03;95008.25;;;20.58;100.00
40245;BME280;25963;42.694;23.600;2023-06-14T06:25:29;95010.44;;;20.80;100.00
40245;BME280;25963;42.694;23.600;2023-06-14T06:27:57;94998.09;;;21.03;100.00
40245;BME280;25963;42.694;23.600;2023-06-14T06:30:23;95011.16;;;21.10;100.00
40245;BME280;25963;42.694;23.600;2023-06-14T06:32:49;95011.81;;;21.45;100.00
40245;BME280;25963;42.694;23.600;2023-06-14T06:35:15;95019.66;;;21.60;100.00
40245;BME280;25963;42.694;23.600;2023-06-14T06:37:41;95019.78;;;21.50;100.00
40245;BME280;25963;42.694;23.600;2023-06-14T06:40:07;95011.88;;;21.58;100.00
40245;BME280;25963;42.694;23.600;2023-06-14T06:42:33;95004.25;;;21.84;100.00
40245;BME280;25963;42.694;23.600;2023-06-14T06:44:59;95012.69;;;21.78;100.00
40245;BME280;25963;42.694;23.600;2023-06-14T06:47:24;95007.44;;;21.86;100.00
40245;BME280;25963;42.694;23.600;2023-06-14T06:49:50;95016.59;;;21.85;100.00
40245;BME280;25963;42.694;23.600;2023-06-14T06:52:15;95020.47;;;21.60;100.00
40245;BME280;25963;42.694;23.600;2023-06-14T06:54:41;95003.94;;;22.05;100.00
40245;BME280;25963;42.694;23.600;2023-06-14T06:57:07;95009.59;;;22.22;100.00
40245;BME280;25963;42.694;23.600;2023-06-14T06:59:33;95013.38;;;22.21;100.00
40245;BME280;25963;42.694;23.600;2023-06-14T07:01:58;95010.69;;;22.02;100.00
40245;BME280;25963;42.694;23.600;2023-06-14T07:04:24;95016.34;;;22.01;100.00
40245;BME280;25963;42.694;23.600;2023-06-14T07:06:49;95016.66;;;22.18;100.00
40245;BME280;25963;42.694;23.600;2023-06-14T07:09:15;95015.53;;;22.19;100.00
40245;BME280;25963;42.694;23.600;2023-06-14T07:11:43;95014.41;;;22.39;100.00
40245;BME280;25963;42.694;23.600;2023-06-14T07:14:09;95001.97;;;22.29;100.00
40245;BME280;25963;42.694;23.600;2023-06-14T07:16:34;95008.69;;;22.60;100.00
40245;BME280;25963;42.694;23.600;2023-06-14T07:19:03;95015.34;;;22.76;100.00
40245;BME280;25963;42.694;23.600;2023-06-14T07:21:30;95011.31;;;23.06;100.00
40245;BME280;25963;42.694;23.600;2023-06-14T07:23:56;95010.31;;;23.16;100.00
40245;BME280;25963;42.694;23.600;2023-06-14T07:26:22;95012.50;;;23.28;100.00
40245;BME280;25963;42.694;23.600;2023-06-14T07:28:48;95017.84;;;23.55;100.00
40245;BME280;25963;42.694;23.600;2023-06-14T07:31:16;94999.59;;;23.52;100.00
40245;BME280;25963;42.694;23.600;2023-06-14T07:58:02;95005.53;;;22.99;100.00
40245;BME280;25963;42.694;23.600;2023-06-14T08:00:28;95003.31;;;23.29;100.00
40245;BME280;25963;42.694;23.600;2023-06-14T08:02:53;95031.53;;;23.31;100.00
40245;BME280;25963;42.694;23.600;2023-06-14T08:05:24;95026.34;;;23.21;100.00
40245;BME280;25963;42.694;23.600;2023-06-14T08:07:49;95030.06;;;23.25;100.00
40245;BME280;25963;42.694;23.600;2023-06-14T08:10:15;95034.19;;;23.45;100.00
40245;BME280;25963;42.694;23.600;2023-06-14T08:12:40;95039.31;;;23.83;100.00
40245;BME280;25963;42.694;23.600;2023-06-14T08:15:06;95041.94;;;24.33;100.00
40245;BME280;25963;42.694;23.600;2023-06-14T08:17:32;95037.66;;;24.09;100.00
40245;BME280;25963;42.694;23.600;2023-06-14T08:19:57;95028.56;;;24.28;100.00
40245;BME280;25963;42.694;23.600;2023-06-14T08:22:23;95033.22;;;24.36;100.00
40245;BME280;25963;42.694;23.600;2023-06-14T08:24:53;95027.22;;;24.17;100.00
40245;BME280;25963;42.694;23.600;2023-06-14T08:27:19;95044.78;;;24.50;100.00
40245;BME280;25963;42.694;23.600;2023-06-14T08:29:45;95033.09;;;24.64;100.00
40245;BME280;25963;42.694;23.600;2023-06-14T08:32:10;95034.50;;;24.92;100.00
40245;BME280;25963;42.694;23.600;2023-06-14T08:34:36;95010.19;;;25.23;100.00
40245;BME280;25963;42.694;23.600;2023-06-14T08:37:01;95020.44;;;25.70;100.00
40245;BME280;25963;42.694;23.600;2023-06-14T08:39:27;95022.53;;;25.73;100.00
40245;BME280;25963;42.694;23.600;2023-06-14T08:41:53;95026.09;;;25.25;100.00
40245;BME280;25963;42.694;23.600;2023-06-14T08:44:19;95032.88;;;24.82;100.00
40245;BME280;25963;42.694;23.600;2023-06-14T08:46:47;95029.38;;;24.82;100.00
40245;BME280;25963;42.694;23.600;2023-06-14T08:49:16;95028.84;;;25.02;100.00
40245;BME280;25963;42.694;23.600;2023-06-14T08:51:42;95011.25;;;24.43;100.00
40245;BME280;25963;42.694;23.600;2023-06-14T08:54:09;95022.75;;;24.57;100.00
40245;BME280;25963;42.694;23.600;2023-06-14T08:56:37;95030.28;;;24.01;100.00
40245;BME280;25963;42.694;23.600;2023-06-14T08:59:04;94998.94;;;23.83;100.00
40245;BME280;25963;42.694;23.600;2023-06-14T09:01:33;95021.81;;;23.72;100.00
40245;BME280;25963;42.694;23.600;2023-06-14T09:03:59;95020.22;;;23.71;100.00
40245;BME280;25963;42.694;23.600;2023-06-14T09:06:25;95019.41;;;23.56;100.00
40245;BME280;25963;42.694;23.600;2023-06-14T09:08:50;95019.25;;;23.89;100.00
40245;BME280;25963;42.694;23.600;2023-06-14T09:11:18;95022.53;;;24.45;100.00
40245;BME280;25963;42.694;23.600;2023-06-14T09:13:45;95021.13;;;24.47;100.00
40245;BME280;25963;42.694;23.600;2023-06-14T09:16:11;95020.94;;;24.44;100.00
40245;BME280;25963;42.694;23.600;2023-06-14T09:21:06;95004.75;;;24.21;100.00
40245;BME280;25963;42.694;23.600;2023-06-14T09:23:40;95004.94;;;24.47;100.00
40245;BME280;25963;42.694;23.600;2023-06-14T09:26:13;94999.44;;;24.92;100.00
40245;BME280;25963;42.694;23.600;2023-06-14T09:28:46;95006.00;;;25.09;100.00
40245;BME280;25963;42.694;23.600;2023-06-14T09:31:17;94993.59;;;25.65;100.00
40245;BME280;25963;42.694;23.600;2023-06-14T09:33:47;94995.75;;;25.28;100.00
40245;BME280;25963;42.694;23.600;2023-06-14T09:36:23;95005.13;;;25.39;97.36
40245;BME280;25963;42.694;23.600;2023-06-14T09:38:56;94986.88;;;25.36;100.00
40245;BME280;25963;42.694;23.600;2023-06-14T09:41:36;95005.50;;;25.06;100.00
40245;BME280;25963;42.694;23.600;2023-06-14T09:44:04;94979.81;;;24.38;100.00
40245;BME280;25963;42.694;23.600;2023-06-14T09:46:30;95001.13;;;24.26;100.00
40245;BME280;25963;42.694;23.600;2023-06-14T09:48:57;94984.78;;;24.22;100.00
40245;BME280;25963;42.694;23.600;2023-06-14T09:51:23;95000.28;;;24.17;100.00
40245;BME280;25963;42.694;23.600;2023-06-14T09:53:50;95003.50;;;23.96;100.00
40245;BME280;25963;42.694;23.600;2023-06-14T09:56:25;94994.78;;;23.99;100.00
40245;BME280;25963;42.694;23.600;2023-06-14T09:58:54;94992.44;;;23.84;100.00
40245;BME280;25963;42.694;23.600;2023-06-14T10:01:21;94977.72;;;23.81;100.00
40245;BME280;25963;42.694;23.600;2023-06-14T10:03:50;94965.69;;;24.32;100.00
40245;BME280;25963;42.694;23.600;2023-06-14T10:06:20;94972.03;;;24.59;100.00
40245;BME280;25963;42.694;23.600;2023-06-14T10:08:51;94984.16;;;24.79;100.00
40245;BME280;25963;42.694;23.600;2023-06-14T10:11:17;94972.91;;;25.34;100.00
40245;BME280;25963;42.694;23.600;2023-06-14T10:13:43;94973.38;;;25.45;94.04
40245;BME280;25963;42.694;23.600;2023-06-14T10:16:31;94965.59;;;25.35;97.51
40245;BME280;25963;42.694;23.600;2023-06-14T10:24:44;94965.78;;;25.73;78.54
40245;BME280;25963;42.694;23.600;2023-06-14T10:27:13;94953.69;;;25.44;79.97
40245;BME280;25963;42.694;23.600;2023-06-14T10:30:06;94954.34;;;25.67;82.03
40245;BME280;25963;42.694;23.600;2023-06-14T10:32:33;94948.00;;;25.98;85.16
40245;BME280;25963;42.694;23.600;2023-06-14T10:34:59;94944.59;;;26.27;71.26
40245;BME280;25963;42.694;23.600;2023-06-14T10:37:25;94938.53;;;26.77;81.14
40245;BME280;25963;42.694;23.600;2023-06-14T10:39:51;94944.19;;;25.64;75.54
40245;BME280;25963;42.694;23.600;2023-06-14T10:42:17;94943.22;;;26.04;83.58
40245;BME280;25963;42.694;23.600;2023-06-14T10:44:45;94949.22;;;26.27;77.25
40245;BME280;25963;42.694;23.600;2023-06-14T10:50:06;94939.06;;;27.00;84.08
40245;BME280;25963;42.694;23.600;2023-06-14T10:52:34;94928.13;;;26.97;80.43
40245;BME280;25963;42.694;23.600;2023-06-14T10:57:37;94931.88;;;27.55;68.37
40245;BME280;25963;42.694;23.600;2023-06-14T11:00:05;94924.75;;;27.29;80.87
40245;BME280;25963;42.694;23.600;2023-06-14T11:11:07;94917.00;;;26.60;76.16
40245;BME280;25963;42.694;23.600;2023-06-14T11:13:33;94917.72;;;26.22;71.90
40245;BME280;25963;42.694;23.600;2023-06-14T11:16:00;94911.16;;;26.40;71.63
40245;BME280;25963;42.694;23.600;2023-06-14T11:18:25;94906.25;;;26.34;75.79
40245;BME280;25963;42.694;23.600;2023-06-14T11:20:53;94896.44;;;26.68;80.65
40245;BME280;25963;42.694;23.600;2023-06-14T11:23:18;94903.75;;;27.26;79.02
40245;BME280;25963;42.694;23.600;2023-06-14T11:25:49;94907.31;;;27.18;64.25
40245;BME280;25963;42.694;23.600;2023-06-14T11:28:15;94902.31;;;27.50;70.05
40245;BME280;25963;42.694;23.600;2023-06-14T11:30:40;94910.41;;;27.71;65.02
40245;BME280;25963;42.694;23.600;2023-06-14T11:33:09;94904.06;;;27.88;58.27
40245;BME280;25963;42.694;23.600;2023-06-14T11:35:35;94899.03;;;27.98;59.54
40245;BME280;25963;42.694;23.600;2023-06-14T11:38:01;94905.91;;;27.75;60.91
40245;BME280;25963;42.694;23.600;2023-06-14T11:40:27;94868.41;;;27.98;57.69
40245;BME280;25963;42.694;23.600;2023-06-14T11:43:00;94882.72;;;28.32;64.76
40245;BME280;25963;42.694;23.600;2023-06-14T11:45:27;94896.06;;;28.37;53.79
40245;BME280;25963;42.694;23.600;2023-06-14T11:47:58;94897.22;;;28.03;58.01
40245;BME280;25963;42.694;23.600;2023-06-14T11:50:23;94895.69;;;27.60;53.27
40245;BME280;25963;42.694;23.600;2023-06-14T11:52:56;94884.28;;;27.33;56.53
40245;BME280;25963;42.694;23.600;2023-06-14T11:55:23;94887.41;;;27.98;59.71
40245;BME280;25963;42.694;23.600;2023-06-14T11:57:49;94884.81;;;28.02;51.08
40245;BME280;25963;42.694;23.600;2023-06-14T12:00:15;94870.69;;;28.08;51.29
40245;BME280;25963;42.694;23.600;2023-06-14T12:02:41;94870.69;;;28.08;49.37
40245;BME280;25963;42.694;23.600;2023-06-14T12:05:07;94858.34;;;28.44;52.89
40245;BME280;25963;42.694;23.600;2023-06-14T12:07:38;94842.84;;;28.44;55.08
40245;BME280;25963;42.694;23.600;2023-06-14T12:10:06;94853.59;;;28.41;53.66
40245;BME280;25963;42.694;23.600;2023-06-14T12:12:38;94845.50;;;27.74;50.77
40245;BME280;25963;42.694;23.600;2023-06-14T12:15:07;94862.44;;;27.71;55.43
40245;BME280;25963;42.694;23.600;2023-06-14T12:17:34;94858.91;;;27.59;51.47
40245;BME280;25963;42.694;23.600;2023-06-14T12:20:05;94848.50;;;27.94;49.98
40245;BME280;25963;42.694;23.600;2023-06-14T12:22:34;94839.19;;;27.70;55.54
40245;BME280;25963;42.694;23.600;2023-06-14T12:24:59;94818.06;;;27.76;54.31
40245;BME280;25963;42.694;23.600;2023-06-14T12:27:25;94835.69;;;27.49;50.95
40245;BME280;25963;42.694;23.600;2023-06-14T12:30:01;94830.66;;;27.81;50.34
40245;BME280;25963;42.694;23.600;2023-06-14T12:32:28;94833.81;;;27.83;52.00
40245;BME280;25963;42.694;23.600;2023-06-14T12:34:54;94838.72;;;27.68;50.00
40245;BME280;25963;42.694;23.600;2023-06-14T12:37:19;94849.97;;;27.79;49.41
40245;BME280;25963;42.694;23.600;2023-06-14T12:39:45;94842.97;;;27.57;48.54
40245;BME280;25963;42.694;23.600;2023-06-14T12:42:11;94837.66;;;26.77;52.15
40245;BME280;25963;42.694;23.600;2023-06-14T12:44:36;94807.97;;;26.89;55.70
40245;BME280;25963;42.694;23.600;2023-06-14T12:47:06;94817.47;;;27.37;50.56
40245;BME280;25963;42.694;23.600;2023-06-14T12:49:33;94816.25;;;28.01;52.84
40245;BME280;25963;42.694;23.600;2023-06-14T12:51:58;94814.78;;;28.16;51.48
40245;BME280;25963;42.694;23.600;2023-06-14T12:54:24;94817.56;;;27.49;53.26
40245;BME280;25963;42.694;23.600;2023-06-14T12:56:51;94806.31;;;27.39;53.63
40245;BME280;25963;42.694;23.600;2023-06-14T12:59:17;94794.47;;;27.64;53.72
40245;BME280;25963;42.694;23.600;2023-06-14T13:01:43;94783.94;;;27.08;55.95
40245;BME280;25963;42.694;23.600;2023-06-14T13:04:10;94809.28;;;26.83;59.79
40245;BME280;25963;42.694;23.600;2023-06-14T13:06:35;94807.03;;;26.64;63.52
40245;BME280;25963;42.694;23.600;2023-06-14T13:09:01;94809.97;;;26.12;68.67
40245;BME280;25963;42.694;23.600;2023-06-14T13:11:27;94807.28;;;26.12;65.38
40245;BME280;25963;42.694;23.600;2023-06-14T13:13:52;94807.53;;;26.19;61.58
40245;BME280;25963;42.694;23.600;2023-06-14T13:16:18;94806.25;;;26.25;62.26
40245;BME280;25963;42.694;23.600;2023-06-14T13:18:43;94802.91;;;26.28;67.30
40245;BME280;25963;42.694;23.600;2023-06-14T13:21:08;94796.47;;;26.12;66.56
40245;BME280;25963;42.694;23.600;2023-06-14T13:23:34;94804.66;;;25.86;65.50
40245;BME280;25963;42.694;23.600;2023-06-14T13:25:59;94792.78;;;25.61;66.90
40245;BME280;25963;42.694;23.600;2023-06-14T13:28:25;94806.44;;;25.56;69.10
40245;BME280;25963;42.694;23.600;2023-06-14T13:30:51;94812.38;;;25.23;71.73
40245;BME280;25963;42.694;23.600;2023-06-14T13:33:17;94799.66;;;25.15;73.08
40245;BME280;25963;42.694;23.600;2023-06-14T13:35:42;94805.84;;;24.89;71.49